createdAt,value
2023-04-02T00:01:34.572Z,2.60
2023-04-02T00:04:08.800Z,2.67
2023-04-02T00:06:45.062Z,2.70
2023-04-02T00:09:15.319Z,2.70
2023-04-02T00:12:16.921Z,2.60
2023-04-02T00:14:53.959Z,2.60
2023-04-02T00:17:26.406Z,2.50
2023-04-02T00:20:02.140Z,2.60
2023-04-02T00:22:32.317Z,2.60
2023-04-02T00:25:13.005Z,2.67
2023-04-02T00:27:40.618Z,2.63
2023-04-02T00:30:10.673Z,2.70
2023-04-02T00:32:37.765Z,2.80
2023-04-02T00:35:29.200Z,2.70
2023-04-02T00:37:57.483Z,2.60
2023-04-02T00:40:29.446Z,2.67
2023-04-02T00:43:00.115Z,2.50
2023-04-02T00:45:37.009Z,2.73
2023-04-02T00:48:33.040Z,2.80
2023-04-02T00:51:17.732Z,2.60
2023-04-02T00:53:49.028Z,2.80
2023-04-02T00:56:39.191Z,2.60
2023-04-02T00:59:37.557Z,2.60
2023-04-02T01:02:17.144Z,2.70
2023-04-02T01:04:56.361Z,2.60
2023-04-02T01:07:59.144Z,2.67
2023-04-02T01:11:17.001Z,2.60
2023-04-02T01:14:12.814Z,2.60
2023-04-02T01:17:03.408Z,2.60
2023-04-02T01:19:48.993Z,2.60
2023-04-02T01:22:18.854Z,2.60
2023-04-02T01:24:46.516Z,2.60
2023-04-02T01:27:36.941Z,2.70
2023-04-02T01:30:11.856Z,2.60
2023-04-02T01:32:40.943Z,2.57
2023-04-02T01:35:09.870Z,2.53
2023-04-02T01:38:07.288Z,2.70
2023-04-02T01:41:22.544Z,2.60
2023-04-02T01:44:08.601Z,2.60
2023-04-02T01:46:41.533Z,2.60
2023-04-02T01:49:21.144Z,2.67
2023-04-02T01:51:58.432Z,2.60
2023-04-02T01:54:29.821Z,2.57
2023-04-02T01:56:57.432Z,2.63
2023-04-02T01:59:26.246Z,2.57
2023-04-02T02:02:07.466Z,2.60
2023-04-02T02:04:37.841Z,2.53
2023-04-02T02:07:17.071Z,2.60
2023-04-02T02:09:49.670Z,2.60
2023-04-02T02:12:17.060Z,2.60
2023-04-02T02:14:52.475Z,2.60
2023-04-02T02:17:34.430Z,2.60
2023-04-02T02:20:09.085Z,2.60
2023-04-02T02:22:40.867Z,2.70
2023-04-02T02:25:17.509Z,2.60
2023-04-02T02:28:00.175Z,2.60
2023-04-02T02:30:47.850Z,2.60
2023-04-02T02:33:39.067Z,2.57
2023-04-02T02:36:36.896Z,2.57
2023-04-02T02:39:30.470Z,2.57
2023-04-02T02:42:14.187Z,2.60
2023-04-02T02:44:49.896Z,2.57
2023-04-02T02:47:25.721Z,2.60
2023-04-02T02:49:59.122Z,2.60
2023-04-02T02:52:46.150Z,2.70
2023-04-02T02:55:24.793Z,2.57
2023-04-02T02:58:12.003Z,2.60
2023-04-02T03:00:58.866Z,2.60
2023-04-02T03:03:34.371Z,2.70
2023-04-02T03:06:10.643Z,2.60
2023-04-02T03:09:06.972Z,2.60
2023-04-02T03:11:52.467Z,2.60
2023-04-02T03:14:46.627Z,2.73
2023-04-02T03:17:34.702Z,2.70
2023-04-02T03:20:21.375Z,2.67
2023-04-02T03:23:02.492Z,2.70
2023-04-02T03:25:44.241Z,2.70
2023-04-02T03:28:23.438Z,2.60
2023-04-02T03:31:22.099Z,2.60
2023-04-02T03:34:11.180Z,2.70
2023-04-02T03:37:08.099Z,2.60
2023-04-02T03:39:51.817Z,2.63
2023-04-02T03:42:43.507Z,2.73
2023-04-02T03:45:24.697Z,2.60
2023-04-02T03:48:39.502Z,2.60
2023-04-02T03:51:25.148Z,2.70
2023-04-02T03:53:54.106Z,2.70
2023-04-02T03:56:39.511Z,2.60
2023-04-02T03:59:54.526Z,2.60
2023-04-02T04:02:46.225Z,2.63
2023-04-02T04:05:38.946Z,2.63
2023-04-02T04:08:17.788Z,2.70
2023-04-02T04:10:45.575Z,2.70
2023-04-02T04:13:25.838Z,2.80
2023-04-02T04:16:09.759Z,2.67
2023-04-02T04:19:18.055Z,2.70
2023-04-02T04:21:46.951Z,2.63
2023-04-02T04:24:27.655Z,2.67
2023-04-02T04:27:35.882Z,2.70
2023-04-02T04:30:20.903Z,2.70
2023-04-02T04:33:05.510Z,2.63
2023-04-02T04:35:45.348Z,2.60
2023-04-02T04:38:39.440Z,2.60
2023-04-02T04:41:24.280Z,2.67
2023-04-02T04:44:09.809Z,2.70
2023-04-02T04:46:55.818Z,2.70
2023-04-02T04:49:44.901Z,2.70
2023-04-02T04:52:32.102Z,2.80
2023-04-02T04:55:00.657Z,2.60
2023-04-02T04:57:37.561Z,2.63
2023-04-02T05:00:40.121Z,2.70
2023-04-02T05:03:47.485Z,2.60
2023-04-02T05:06:42.812Z,2.67
2023-04-02T05:09:36.227Z,2.60
2023-04-02T05:12:26.488Z,2.70
2023-04-02T05:15:03.061Z,2.70
2023-04-02T05:17:55.519Z,2.83
2023-04-02T05:20:41.310Z,2.60
2023-04-02T05:23:29.997Z,2.67
2023-04-02T05:26:11.253Z,2.70
2023-04-02T05:28:56.510Z,2.60
2023-04-02T05:32:06.810Z,2.63
2023-04-02T05:34:39.344Z,2.70
2023-04-02T05:37:18.385Z,2.57
2023-04-02T05:39:56.610Z,2.70
2023-04-02T05:42:29.444Z,2.73
2023-04-02T05:45:35.842Z,2.63
2023-04-02T05:48:17.104Z,2.67
2023-04-02T05:50:51.833Z,2.70
2023-04-02T05:53:40.551Z,2.80
2023-04-02T05:56:35.915Z,2.63
2023-04-02T05:59:29.702Z,2.67
2023-04-02T06:02:11.358Z,2.67
2023-04-02T06:04:56.597Z,2.67
2023-04-02T06:08:14.885Z,2.63
2023-04-02T06:11:00.356Z,2.63
2023-04-02T06:13:28.731Z,2.60
2023-04-02T06:15:56.631Z,2.67
2023-04-02T06:18:34.872Z,2.70
2023-04-02T06:21:04.927Z,2.70
2023-04-02T06:23:56.998Z,2.67
2023-04-02T06:26:41.633Z,2.63
2023-04-02T06:29:39.721Z,2.60
2023-04-02T06:32:12.710Z,2.63
2023-04-02T06:34:43.533Z,2.70
2023-04-02T06:37:38.838Z,2.57
2023-04-02T06:40:49.798Z,2.70
2023-04-02T06:43:54.982Z,2.60
2023-04-02T06:46:52.526Z,2.70
2023-04-02T06:49:34.161Z,2.60
2023-04-02T06:52:14.693Z,2.60
2023-04-02T06:54:41.873Z,2.60
2023-04-02T06:57:13.330Z,2.80
2023-04-02T06:59:43.620Z,2.60
2023-04-02T07:02:30.769Z,2.67
2023-04-02T07:05:09.259Z,2.60
2023-04-02T07:07:40.230Z,2.60
2023-04-02T07:10:12.315Z,2.70
2023-04-02T07:12:39.928Z,2.70
2023-04-02T07:15:07.796Z,2.60
2023-04-02T07:17:35.744Z,2.70
2023-04-02T07:20:03.393Z,2.60
2023-04-02T07:22:30.835Z,2.63
2023-04-02T07:25:01.380Z,2.60
2023-04-02T07:27:28.543Z,2.57
2023-04-02T07:29:55.719Z,2.60
2023-04-02T07:32:22.824Z,2.60
2023-04-02T07:34:49.820Z,2.60
2023-04-02T07:37:17.313Z,2.60
2023-04-02T07:39:44.284Z,2.60
2023-04-02T07:42:11.966Z,2.57
2023-04-02T07:44:39.395Z,2.60
2023-04-02T07:47:07.305Z,2.50
2023-04-02T07:49:34.778Z,2.60
2023-04-02T07:52:02.222Z,2.53
2023-04-02T07:54:30.256Z,2.53
2023-04-02T07:56:57.558Z,2.50
2023-04-02T07:59:25.038Z,2.53
2023-04-02T08:03:58.002Z,2.50
2023-04-02T08:06:25.770Z,2.60
2023-04-02T08:08:52.953Z,2.60
2023-04-02T08:11:20.354Z,2.60
2023-04-02T08:13:47.765Z,2.60
2023-04-02T08:16:15.967Z,2.60
2023-04-02T08:18:43.030Z,2.60
2023-04-02T08:21:11.246Z,2.50
2023-04-02T08:23:38.695Z,2.50
2023-04-02T08:26:07.282Z,2.53
2023-04-02T08:28:35.075Z,2.53
2023-04-02T08:31:04.416Z,2.53
2023-04-02T08:33:31.947Z,2.70
2023-04-02T08:35:59.621Z,2.60
2023-04-02T08:38:27.291Z,2.53
2023-04-02T08:41:01.403Z,2.53
2023-04-02T08:43:41.795Z,2.53
2023-04-02T08:46:58.993Z,2.57
2023-04-02T08:49:43.444Z,2.60
2023-04-02T08:52:36.802Z,2.50
2023-04-02T08:55:18.501Z,2.50
2023-04-02T08:58:05.513Z,2.57
2023-04-02T09:00:41.766Z,2.57
2023-04-02T09:03:21.859Z,2.50
2023-04-02T09:05:52.046Z,2.60
2023-04-02T09:08:26.999Z,2.60
2023-04-02T09:11:09.696Z,2.70
2023-04-02T09:13:46.591Z,2.50
2023-04-02T09:16:22.408Z,2.63
2023-04-02T09:18:53.938Z,2.60
2023-04-02T09:21:46.828Z,2.60
2023-04-02T09:24:14.165Z,2.67
2023-04-02T09:26:41.344Z,2.63
2023-04-02T09:29:11.525Z,2.50
2023-04-02T09:32:13.968Z,2.63
2023-04-02T09:34:41.063Z,2.50
2023-04-02T09:37:19.598Z,2.60
2023-04-02T09:39:46.646Z,2.50
2023-04-02T09:42:38.108Z,2.60
2023-04-02T09:45:31.890Z,2.60
2023-04-02T09:47:59.154Z,2.53
2023-04-02T09:50:32.493Z,2.70
2023-04-02T09:53:30.884Z,2.50
2023-04-02T09:56:23.168Z,2.47
2023-04-02T09:59:12.726Z,2.40
2023-04-02T10:01:57.727Z,2.47
2023-04-02T10:04:44.478Z,2.40
2023-04-02T10:07:42.761Z,2.50
2023-04-02T10:10:41.719Z,2.40
2023-04-02T10:13:26.981Z,2.40
2023-04-02T10:16:07.041Z,2.40
2023-04-02T10:18:54.034Z,2.40
2023-04-02T10:21:34.240Z,2.40
2023-04-02T10:24:02.933Z,2.40
2023-04-02T10:26:48.279Z,2.37
2023-04-02T10:30:03.900Z,2.40
2023-04-02T10:32:53.712Z,2.33
2023-04-02T10:36:11.254Z,2.40
2023-04-02T10:38:59.274Z,2.40
2023-04-02T10:42:04.678Z,2.43
2023-04-02T10:45:01.161Z,2.50
2023-04-02T10:48:43.713Z,2.50
2023-04-02T10:51:53.688Z,2.50
2023-04-02T10:54:48.742Z,2.50
2023-04-02T10:57:37.236Z,2.40
2023-04-02T11:00:24.052Z,2.50
2023-04-02T11:03:16.771Z,2.40
2023-04-02T11:05:51.270Z,2.50
2023-04-02T11:08:26.582Z,2.40
2023-04-02T11:11:09.323Z,2.50
2023-04-02T11:14:24.760Z,2.57
2023-04-02T11:16:55.541Z,2.60
2023-04-02T11:19:30.573Z,2.60
2023-04-02T11:22:13.605Z,2.50
2023-04-02T11:24:52.321Z,2.40
2023-04-02T11:27:28.233Z,2.37
2023-04-02T11:30:28.762Z,2.40
2023-04-02T11:33:44.245Z,2.40
2023-04-02T11:37:11.712Z,2.50
2023-04-02T11:39:56.665Z,2.43
2023-04-02T11:42:35.338Z,2.57
2023-04-02T11:45:21.240Z,2.40
2023-04-02T11:48:00.940Z,2.53
2023-04-02T11:50:42.600Z,2.50
2023-04-02T11:53:13.004Z,2.50
2023-04-02T11:56:07.716Z,2.50
2023-04-02T11:59:07.901Z,2.50
2023-04-02T12:02:03.521Z,2.40
2023-04-02T12:04:46.576Z,2.40
2023-04-02T12:07:52.114Z,2.60
2023-04-02T12:10:34.384Z,2.50
2023-04-02T12:13:01.630Z,2.50
2023-04-02T12:15:47.056Z,2.50
2023-04-02T12:18:22.534Z,2.50
2023-04-02T12:20:56.455Z,2.50
2023-04-02T12:23:31.801Z,2.50
2023-04-02T12:26:14.307Z,2.47
2023-04-02T12:28:42.325Z,2.50
2023-04-02T12:31:09.420Z,2.50
2023-04-02T12:33:41.682Z,2.50
2023-04-02T12:36:13.960Z,2.40
2023-04-02T12:38:50.695Z,2.50
2023-04-02T12:41:33.394Z,2.50
2023-04-02T12:44:15.388Z,2.60
2023-04-02T12:46:44.731Z,2.50
2023-04-02T12:49:39.387Z,2.57
2023-04-02T12:52:12.914Z,2.60
2023-04-02T12:55:01.144Z,2.60
2023-04-02T12:57:28.881Z,2.50
2023-04-02T13:00:06.150Z,2.47
2023-04-02T13:02:45.979Z,2.50
2023-04-02T13:05:13.224Z,2.50
2023-04-02T13:07:46.882Z,2.50
2023-04-02T13:10:28.199Z,2.43
2023-04-02T13:12:58.953Z,2.40
2023-04-02T13:15:36.470Z,2.50
2023-04-02T13:18:22.918Z,2.60
2023-04-02T13:21:25.424Z,2.60
2023-04-02T13:23:53.532Z,2.60
2023-04-02T13:26:28.037Z,2.50
2023-04-02T13:29:18.642Z,2.60
2023-04-02T13:31:46.344Z,2.50
2023-04-02T13:34:13.639Z,2.50
2023-04-02T13:36:41.054Z,2.50
2023-04-02T13:39:08.191Z,2.53
2023-04-02T13:41:50.988Z,2.57
2023-04-02T13:44:38.510Z,2.50
2023-04-02T13:47:05.813Z,2.43
2023-04-02T13:49:33.237Z,2.40
2023-04-02T13:52:04.811Z,2.47
2023-04-02T13:54:55.095Z,2.50
2023-04-02T13:57:22.301Z,2.60
2023-04-02T13:59:49.329Z,2.60
2023-04-02T14:02:21.482Z,2.57
2023-04-02T14:05:07.596Z,2.50
2023-04-02T14:08:09.548Z,2.60
2023-04-02T14:11:26.040Z,2.67
2023-04-02T14:14:34.471Z,2.70
2023-04-02T14:18:05.994Z,2.50
2023-04-02T14:21:06.852Z,2.60
2023-04-02T14:24:31.416Z,2.50
2023-04-02T14:27:19.658Z,2.53
2023-04-02T14:30:22.452Z,2.60
2023-04-02T14:33:31.517Z,2.60
2023-04-02T14:36:26.765Z,2.57
2023-04-02T14:39:25.088Z,2.70
2023-04-02T14:42:14.100Z,2.60
2023-04-02T14:45:03.844Z,2.70
2023-04-02T14:47:51.716Z,2.60
2023-04-02T14:50:33.071Z,2.60
2023-04-02T14:53:19.823Z,2.50
2023-04-02T14:55:52.441Z,2.57
2023-04-02T14:58:31.711Z,2.70
2023-04-02T15:01:20.593Z,2.57
2023-04-02T15:04:23.372Z,2.70
2023-04-02T15:06:58.026Z,2.67
2023-04-02T15:10:15.398Z,2.60
2023-04-02T15:12:45.102Z,2.60
2023-04-02T15:15:41.644Z,2.60
2023-04-02T15:18:16.900Z,2.63
2023-04-02T15:21:01.760Z,2.60
2023-04-02T15:24:16.550Z,2.60
2023-04-02T15:27:25.058Z,2.60
2023-04-02T15:30:45.017Z,2.50
2023-04-02T15:34:26.770Z,2.60
2023-04-02T15:37:22.202Z,2.60
2023-04-02T15:40:37.840Z,2.53
2023-04-02T15:43:43.848Z,2.60
2023-04-02T15:47:26.636Z,2.60
2023-04-02T15:50:25.881Z,2.60
2023-04-02T15:53:45.868Z,2.60
2023-04-02T15:56:35.364Z,2.70
2023-04-02T15:59:21.982Z,2.63
2023-04-02T16:02:25.503Z,2.60
2023-04-02T16:05:31.179Z,2.63
2023-04-02T16:08:33.207Z,2.60
2023-04-02T16:11:00.848Z,2.77
2023-04-02T16:13:37.151Z,2.60
2023-04-02T16:16:27.093Z,2.63
2023-04-02T16:19:33.586Z,2.70
2023-04-02T16:22:30.100Z,2.63
2023-04-02T16:25:19.465Z,2.70
2023-04-02T16:28:26.209Z,2.70
2023-04-02T16:31:38.607Z,2.67
2023-04-02T16:35:42.664Z,2.67
2023-04-02T16:38:57.320Z,2.77
2023-04-02T16:42:29.576Z,2.70
2023-04-02T16:45:59.105Z,2.77
2023-04-02T16:48:55.488Z,2.70
2023-04-02T16:51:52.916Z,2.73
2023-04-02T16:54:41.396Z,2.80
2023-04-02T16:57:36.391Z,2.80
2023-04-02T17:00:46.771Z,2.70
2023-04-02T17:04:18.312Z,2.70
2023-04-02T17:07:40.617Z,2.80
2023-04-02T17:10:39.461Z,2.83
2023-04-02T17:13:42.142Z,2.80
2023-04-02T17:16:18.394Z,2.80
2023-04-02T17:18:51.394Z,2.90
2023-04-02T17:21:26.236Z,2.77
2023-04-02T17:24:28.623Z,2.87
2023-04-02T17:27:37.708Z,2.90
2023-04-02T17:30:41.616Z,2.90
2023-04-02T17:33:18.957Z,2.90
2023-04-02T17:35:59.591Z,2.80
2023-04-02T17:39:01.166Z,2.80
2023-04-02T17:41:52.525Z,2.83
2023-04-02T17:44:47.476Z,2.80
2023-04-02T17:48:02.028Z,2.83
2023-04-02T17:51:19.645Z,2.80
2023-04-02T17:54:25.701Z,2.90
2023-04-02T17:57:32.559Z,2.90
2023-04-02T18:00:33.047Z,3.00
2023-04-02T18:03:52.816Z,2.93
2023-04-02T18:07:03.028Z,2.87
2023-04-02T18:10:00.375Z,2.90
2023-04-02T18:12:58.181Z,2.90
2023-04-02T18:16:00.260Z,2.83
2023-04-02T18:19:05.716Z,2.90
2023-04-02T18:22:13.255Z,2.90
2023-04-02T18:25:32.718Z,2.87
2023-04-02T18:28:32.308Z,2.97
2023-04-02T18:31:50.841Z,2.90
2023-04-02T18:34:44.741Z,2.93
2023-04-02T18:37:43.470Z,2.93
2023-04-02T18:40:43.135Z,2.90
2023-04-02T18:43:51.050Z,2.97
2023-04-02T18:46:38.766Z,3.00
2023-04-02T18:49:35.930Z,3.00
2023-04-02T18:52:13.461Z,3.00
2023-04-02T18:55:05.537Z,3.00
2023-04-02T18:57:38.821Z,2.97
2023-04-02T19:00:33.539Z,3.00
2023-04-02T19:03:23.903Z,3.07
2023-04-02T19:06:09.921Z,3.00
2023-04-02T19:08:55.266Z,3.00
2023-04-02T19:11:31.733Z,3.20
2023-04-02T19:14:02.509Z,2.97
2023-04-02T19:17:02.474Z,3.00
2023-04-02T19:19:40.424Z,3.00
2023-04-02T19:23:02.121Z,2.97
2023-04-02T19:26:00.571Z,3.00
2023-04-02T19:29:02.269Z,2.93
2023-04-02T19:32:02.268Z,3.00
2023-04-02T19:35:05.605Z,3.03
2023-04-02T19:37:44.082Z,3.00
2023-04-02T19:40:56.289Z,3.07
2023-04-02T19:43:30.603Z,3.00
2023-04-02T19:45:58.306Z,3.00
2023-04-02T19:48:32.951Z,3.00
2023-04-02T19:51:00.643Z,3.00
2023-04-02T19:53:27.707Z,2.93
2023-04-02T19:55:57.142Z,3.00
2023-04-02T19:58:36.007Z,2.97
2023-04-02T20:01:04.032Z,3.00
2023-04-02T20:03:31.545Z,3.07
2023-04-02T20:05:59.922Z,2.97
2023-04-02T20:08:28.512Z,3.00
2023-04-02T20:10:58.611Z,2.90
2023-04-02T20:13:26.102Z,3.10
2023-04-02T20:15:53.608Z,3.07
2023-04-02T20:18:20.928Z,2.93
2023-04-02T20:20:49.521Z,3.00
2023-04-02T20:23:17.274Z,2.97
2023-04-02T20:25:55.095Z,2.90
2023-04-02T20:28:26.204Z,3.00
2023-04-02T20:30:55.535Z,2.97
2023-04-02T20:33:24.901Z,3.10
2023-04-02T20:35:52.686Z,3.00
2023-04-02T20:38:20.078Z,2.97
2023-04-02T20:40:52.770Z,2.97
2023-04-02T20:43:20.955Z,2.93
2023-04-02T20:46:01.382Z,2.93
2023-04-02T20:48:32.650Z,3.00
2023-04-02T20:51:04.393Z,3.10
2023-04-02T20:53:35.311Z,2.93
2023-04-02T20:56:10.129Z,2.90
2023-04-02T20:58:40.010Z,2.97
2023-04-02T21:01:21.927Z,3.07
2023-04-02T21:03:54.862Z,3.07
2023-04-02T21:06:28.134Z,2.93
2023-04-02T21:08:55.365Z,2.97
2023-04-02T21:11:23.685Z,3.00
2023-04-02T21:13:51.565Z,2.90
2023-04-02T21:16:23.948Z,3.00
2023-04-02T21:18:58.437Z,2.97
2023-04-02T21:21:27.485Z,3.00
2023-04-02T21:24:00.226Z,2.93
2023-04-02T21:26:32.450Z,2.90
2023-04-02T21:29:00.875Z,3.00
2023-04-02T21:31:38.007Z,3.00
2023-04-02T21:34:06.948Z,2.97
2023-04-02T21:36:46.950Z,3.00
2023-04-02T21:39:23.720Z,3.00
2023-04-02T21:41:53.304Z,3.00
2023-04-02T21:44:23.670Z,3.00
2023-04-02T21:46:53.670Z,2.93
2023-04-02T21:49:22.636Z,3.00
2023-04-02T21:51:51.514Z,2.97
2023-04-02T21:54:19.082Z,2.97
2023-04-02T21:56:47.912Z,3.00
2023-04-02T21:59:17.529Z,3.00
2023-04-02T22:01:50.253Z,3.00
2023-04-02T22:04:23.136Z,3.00
2023-04-02T22:06:52.327Z,3.00
2023-04-02T22:09:24.628Z,3.00
2023-04-02T22:11:59.150Z,3.00
2023-04-02T22:14:27.277Z,3.00
2023-04-02T22:16:54.863Z,2.93
2023-04-02T22:19:22.057Z,3.07
2023-04-02T22:21:49.117Z,3.00
2023-04-02T22:24:24.968Z,2.97
2023-04-02T22:26:52.230Z,2.93
2023-04-02T22:29:19.384Z,2.97
2023-04-02T22:31:47.142Z,2.97
2023-04-02T22:34:14.582Z,3.00
2023-04-02T22:36:41.593Z,3.00
2023-04-02T22:39:11.877Z,3.00
2023-04-02T22:41:39.322Z,2.97
2023-04-02T22:44:06.819Z,2.93
2023-04-02T22:46:34.539Z,2.97
2023-04-02T22:49:01.652Z,3.00
2023-04-02T22:51:29.643Z,2.97
2023-04-02T22:53:57.537Z,2.97
2023-04-02T22:56:31.989Z,3.00
2023-04-02T22:58:59.659Z,3.00
2023-04-02T23:01:33.142Z,2.93
2023-04-02T23:04:00.449Z,2.97
2023-04-02T23:06:28.537Z,3.03
2023-04-02T23:08:55.839Z,2.97
2023-04-02T23:11:27.485Z,2.97
2023-04-02T23:13:57.385Z,2.97
2023-04-02T23:16:28.554Z,2.90
2023-04-02T23:18:57.355Z,2.97
2023-04-02T23:21:26.117Z,3.03
2023-04-02T23:23:54.108Z,2.90
2023-04-02T23:26:27.350Z,3.00
2023-04-02T23:28:54.598Z,3.00
2023-04-02T23:31:23.739Z,3.00
2023-04-02T23:33:52.628Z,3.00
2023-04-02T23:36:31.050Z,3.00
2023-04-02T23:39:09.394Z,3.00
2023-04-02T23:41:40.254Z,3.00
2023-04-02T23:44:08.782Z,3.00
2023-04-02T23:46:36.832Z,3.00
2023-04-02T23:49:04.490Z,3.00
2023-04-02T23:51:32.455Z,3.00
2023-04-02T23:53:59.892Z,3.00
2023-04-02T23:56:27.321Z,3.00
2023-04-02T23:58:54.471Z,3.00
